Time;durP1;ratioP1;P1;durP2;ratioP2;P2;SDS_P1;SDS_P2;PMS_P1;PMS_P2;Temp;Humidity;BMP_temperature;BMP_pressure;BME280_temperature;BME280_humidity;BME280_pressure;Samples;Min_cycle;Max_cycle;Signal;HPM_P1;HPM_P2
2022/10/30 00:01:04;;;;;;;19.30;17.50;;;15.10;1.00;;;;;;6376176;27;20608;-54
2022/10/30 00:04:08;;;;;;;19.87;17.90;;;15.10;1.00;;;;;;6385110;27;20238;-53
2022/10/30 00:07:11;;;;;;;20.40;18.33;;;15.10;1.00;;;;;;6385610;27;20738;-53
2022/10/30 00:10:15;;;;;;;19.73;17.80;;;15.10;1.00;;;;;;6384807;27;20691;-53
2022/10/30 00:13:19;;;;;;;23.23;19.33;;;15.10;1.00;;;;;;6386457;27;20238;-53
2022/10/30 00:16:22;;;;;;;20.57;17.90;;;15.10;1.00;;;;;;6386352;27;20751;-54
2022/10/30 00:19:26;;;;;;;23.03;19.90;;;15.00;1.00;;;;;;6363891;27;20692;-54
2022/10/30 00:22:29;;;;;;;19.70;17.67;;;15.00;1.00;;;;;;6359907;27;20747;-54
2022/10/30 00:25:34;;;;;;;22.17;19.80;;;15.00;1.00;;;;;;6355589;27;20235;-57
2022/10/30 00:28:37;;;;;;;27.67;23.00;;;14.90;1.00;;;;;;6359425;27;20250;-54
2022/10/30 00:31:40;;;;;;;24.60;19.70;;;14.90;1.00;;;;;;6358671;27;20250;-53
2022/10/30 00:34:44;;;;;;;21.37;19.40;;;14.90;1.00;;;;;;6385100;27;20633;-53
2022/10/30 00:37:47;;;;;;;27.50;22.33;;;14.80;1.00;;;;;;6355709;27;20227;-54
2022/10/30 00:40:50;;;;;;;26.60;21.27;;;14.80;1.00;;;;;;6385487;27;20238;-53
2022/10/30 00:43:53;;;;;;;22.17;19.40;;;14.80;1.00;;;;;;6380537;27;20270;-54
2022/10/30 00:46:57;;;;;;;24.00;21.37;;;14.80;1.00;;;;;;6359213;27;20243;-54
2022/10/30 00:50:07;;;;;;;22.27;19.77;;;14.80;1.00;;;;;;6359505;27;20275;-53
2022/10/30 00:53:13;;;;;;;22.60;20.20;;;14.70;1.00;;;;;;6359462;27;20235;-54
2022/10/30 00:56:21;;;;;;;25.90;21.37;;;14.70;1.00;;;;;;6359631;27;20234;-54
2022/10/30 00:59:28;;;;;;;24.60;21.23;;;14.70;1.00;;;;;;6382688;27;20710;-55
2022/10/30 01:02:31;;;;;;;21.37;19.10;;;14.60;1.00;;;;;;6360023;27;20254;-54
2022/10/30 01:05:36;;;;;;;23.70;21.13;;;14.60;1.00;;;;;;6366932;27;20395;-54
2022/10/30 01:08:40;;;;;;;24.47;22.00;;;14.60;1.00;;;;;;6383774;27;20226;-54
2022/10/30 01:11:43;;;;;;;23.00;20.40;;;14.60;1.00;;;;;;6384389;27;20317;-58
2022/10/30 01:14:52;;;;;;;24.80;22.13;;;14.50;1.00;;;;;;6367326;27;20231;-53
2022/10/30 01:18:27;;;;;;;25.50;22.87;;;14.50;1.00;;;;;;6358595;28;20762;-58
2022/10/30 01:22:00;;;;;;;29.33;25.17;;;14.50;1.00;;;;;;6358906;27;20232;-54
2022/10/30 01:25:17;;;;;;;33.33;25.00;;;14.50;1.00;;;;;;6359701;28;20310;-54
2022/10/30 01:28:42;;;;;;;32.20;25.17;;;14.50;1.00;;;;;;6358902;27;20234;-54
2022/10/30 01:31:58;;;;;;;31.57;27.67;;;14.40;1.00;;;;;;6368610;27;20471;-53
2022/10/30 01:35:20;;;;;;;32.83;25.50;;;14.40;1.00;;;;;;6389954;27;20235;-53
2022/10/30 01:38:29;;;;;;;27.40;24.50;;;14.40;1.00;;;;;;6389383;27;20237;-54
2022/10/30 01:41:32;;;;;;;35.30;29.10;;;14.30;1.00;;;;;;6389334;27;20227;-53
2022/10/30 01:44:35;;;;;;;29.50;25.37;;;14.30;1.00;;;;;;6360983;27;20237;-54
2022/10/30 01:47:48;;;;;;;27.27;24.13;;;14.20;1.00;;;;;;6390012;27;20230;-57
2022/10/30 01:50:57;;;;;;;27.97;22.77;;;14.20;1.00;;;;;;6372365;27;20227;-57
2022/10/30 01:54:13;;;;;;;32.27;26.67;;;14.20;1.00;;;;;;6364320;27;20235;-54
2022/10/30 01:57:29;;;;;;;33.87;25.73;;;14.20;1.00;;;;;;6364311;27;20224;-53
2022/10/30 02:00:32;;;;;;;29.20;24.03;;;14.20;1.00;;;;;;6388494;27;20238;-53
2022/10/30 02:03:34;;;;;;;31.97;24.13;;;14.20;1.00;;;;;;6389035;27;20256;-54
2022/10/30 02:06:38;;;;;;;32.13;24.07;;;14.10;1.00;;;;;;6387962;27;20247;-55
2022/10/30 02:09:42;;;;;;;32.80;24.97;;;14.10;1.00;;;;;;6381689;27;20230;-54
2022/10/30 02:12:45;;;;;;;29.70;23.77;;;14.10;1.00;;;;;;6388493;27;20773;-54
2022/10/30 02:15:49;;;;;;;26.23;23.37;;;14.00;1.00;;;;;;6381483;27;20231;-55
2022/10/30 02:18:52;;;;;;;24.63;22.10;;;14.00;1.00;;;;;;6362993;27;20235;-54
2022/10/30 02:21:56;;;;;;;25.87;23.03;;;14.00;1.00;;;;;;6362782;27;20239;-54
2022/10/30 02:24:59;;;;;;;25.30;21.73;;;14.00;1.00;;;;;;6363473;27;20318;-53
2022/10/30 02:28:02;;;;;;;21.50;19.27;;;13.90;1.00;;;;;;6362740;27;20238;-56
2022/10/30 02:31:06;;;;;;;23.77;21.37;;;13.90;1.00;;;;;;6366730;27;20607;-55
2022/10/30 02:34:09;;;;;;;24.53;21.73;;;13.90;1.00;;;;;;6384377;27;20232;-55
2022/10/30 02:37:13;;;;;;;22.83;20.60;;;13.80;1.00;;;;;;6389088;27;20226;-53
2022/10/30 02:40:16;;;;;;;24.70;22.10;;;13.80;1.00;;;;;;6388501;27;20238;-54
2022/10/30 02:43:19;;;;;;;23.17;20.77;;;13.80;1.00;;;;;;6385136;27;20617;-53
2022/10/30 02:46:22;;;;;;;22.80;20.40;;;13.80;1.00;;;;;;6362559;27;20234;-54
2022/10/30 02:49:25;;;;;;;23.70;21.13;;;13.70;1.00;;;;;;6362691;27;20228;-56
2022/10/30 02:52:29;;;;;;;21.20;18.93;;;13.70;1.00;;;;;;6362910;27;20246;-55
2022/10/30 02:55:32;;;;;;;22.57;20.17;;;13.70;1.00;;;;;;6362541;27;20227;-54
2022/10/30 02:58:36;;;;;;;21.67;19.40;;;13.60;1.00;;;;;;6377979;27;20242;-55
2022/10/30 03:01:39;;;;;;;22.67;19.57;;;13.60;1.00;;;;;;6362150;27;20397;-54
2022/10/30 03:04:42;;;;;;;23.00;19.47;;;13.60;1.00;;;;;;6362050;27;20311;-54
2022/10/30 03:07:47;;;;;;;21.33;19.13;;;13.60;1.00;;;;;;6372955;27;20231;-53
2022/10/30 03:10:50;;;;;;;21.00;18.80;;;13.50;1.00;;;;;;6387049;27;20418;-55
2022/10/30 03:13:53;;;;;;;20.23;17.97;;;13.50;1.00;;;;;;6387892;27;20230;-55
2022/10/30 03:16:56;;;;;;;21.80;19.60;;;13.50;1.00;;;;;;6388247;27;20242;-54
2022/10/30 03:19:59;;;;;;;19.13;17.33;;;13.50;1.00;;;;;;6388520;27;20632;-54
2022/10/30 03:23:03;;;;;;;20.03;17.43;;;13.50;1.00;;;;;;6368257;27;20235;-54
2022/10/30 03:26:07;;;;;;;19.93;18.00;;;13.40;1.00;;;;;;6362352;27;20242;-53
2022/10/30 03:29:09;;;;;;;19.93;17.97;;;13.40;1.00;;;;;;6377895;27;20249;-54
2022/10/30 03:32:14;;;;;;;23.10;20.53;;;13.40;1.00;;;;;;6364670;27;20242;-54
2022/10/30 03:35:17;;;;;;;22.17;19.87;;;13.40;1.00;;;;;;6386464;27;20239;-53
2022/10/30 03:38:21;;;;;;;22.10;19.97;;;13.40;1.00;;;;;;6386911;27;20242;-53
2022/10/30 03:41:24;;;;;;;21.43;19.17;;;13.30;1.00;;;;;;6384383;27;20231;-55
2022/10/30 03:44:28;;;;;;;31.80;23.27;;;13.30;1.00;;;;;;6386550;27;20239;-54
2022/10/30 03:47:31;;;;;;;22.00;19.70;;;13.30;1.00;;;;;;6384078;27;20630;-53
2022/10/30 03:50:34;;;;;;;26.03;21.77;;;13.30;1.00;;;;;;6368186;27;20275;-53
2022/10/30 03:53:39;;;;;;;23.60;20.17;;;13.40;1.00;;;;;;6359972;27;20250;-53
2022/10/30 03:56:49;;;;;;;21.73;19.57;;;13.40;1.00;;;;;;6382234;27;20238;-53
2022/10/30 03:59:52;;;;;;;27.63;21.80;;;13.30;1.00;;;;;;6388704;27;20238;-54
2022/10/30 04:02:55;;;;;;;24.60;21.53;;;13.40;1.00;;;;;;6388165;27;20250;-53
2022/10/30 04:05:58;;;;;;;21.77;19.47;;;13.50;1.00;;;;;;6379889;27;20322;-55
2022/10/30 04:09:03;;;;;;;24.37;19.60;;;13.60;1.00;;;;;;6383875;27;20695;-59
2022/10/30 04:12:06;;;;;;;25.93;20.50;;;13.60;1.00;;;;;;6387621;27;20230;-54
2022/10/30 04:15:09;;;;;;;21.70;19.33;;;13.60;1.00;;;;;;6374053;27;20842;-53
2022/10/30 04:18:15;;;;;;;21.17;18.80;;;13.70;1.00;;;;;;6386060;27;20226;-57
2022/10/30 04:21:18;;;;;;;22.33;19.30;;;13.70;1.00;;;;;;6384945;27;20291;-53
2022/10/30 04:24:22;;;;;;;20.33;18.23;;;13.80;1.00;;;;;;6385723;27;20257;-58
2022/10/30 04:27:31;;;;;;;17.90;16.10;;;13.80;1.00;;;;;;6386503;27;20836;-54
2022/10/30 04:30:35;;;;;;;20.53;18.00;;;13.80;1.00;;;;;;6383264;27;20722;-53
2022/10/30 04:33:41;;;;;;;20.97;16.60;;;13.80;1.00;;;;;;6386558;27;20234;-53
2022/10/30 04:36:45;;;;;;;24.10;19.57;;;13.80;1.00;;;;;;6386339;27;20614;-54
2022/10/30 04:39:49;;;;;;;18.20;16.27;;;13.80;1.00;;;;;;6383433;27;20234;-53
2022/10/30 04:42:57;;;;;;;24.50;21.97;;;13.80;1.00;;;;;;6385609;27;20239;-53
2022/10/30 04:46:04;;;;;;;19.23;17.20;;;13.80;1.00;;;;;;6385662;27;20223;-53
2022/10/30 04:49:07;;;;;;;17.87;16.13;;;13.80;1.00;;;;;;6381771;27;20234;-54
2022/10/30 04:52:10;;;;;;;20.00;17.87;;;13.80;1.00;;;;;;6381340;27;20242;-54
2022/10/30 04:55:14;;;;;;;17.47;15.67;;;13.90;1.00;;;;;;6384896;27;20254;-54
2022/10/30 04:58:17;;;;;;;18.37;16.63;;;13.90;1.00;;;;;;6380470;27;20714;-54
2022/10/30 05:01:20;;;;;;;20.90;16.90;;;13.90;1.00;;;;;;6386576;27;20608;-53
2022/10/30 05:04:24;;;;;;;17.20;15.57;;;13.90;1.00;;;;;;6382519;27;20261;-53
2022/10/30 05:07:27;;;;;;;24.57;19.40;;;13.90;1.00;;;;;;6383719;27;20602;-54
2022/10/30 05:10:31;;;;;;;19.63;17.10;;;13.90;1.00;;;;;;6385984;27;20227;-54
2022/10/30 05:13:34;;;;;;;19.70;17.77;;;13.90;1.00;;;;;;6384003;27;20241;-54
2022/10/30 05:16:37;;;;;;;21.20;17.70;;;13.90;1.00;;;;;;6384619;27;20218;-53
2022/10/30 05:19:46;;;;;;;16.97;15.27;;;14.00;1.00;;;;;;6375409;27;20713;-54
2022/10/30 05:22:55;;;;;;;26.03;20.77;;;14.00;1.00;;;;;;6377842;27;20245;-54
2022/10/30 05:26:01;;;;;;;29.87;20.27;;;14.00;1.00;;;;;;6385908;27;20802;-54
2022/10/30 05:29:04;;;;;;;22.27;18.40;;;14.00;1.00;;;;;;6380036;27;20245;-54
2022/10/30 05:32:07;;;;;;;17.73;15.97;;;13.90;1.00;;;;;;6382406;27;20234;-53
2022/10/30 05:35:10;;;;;;;22.03;19.63;;;13.90;1.00;;;;;;6385033;27;20314;-53
2022/10/30 05:38:14;;;;;;;24.63;19.70;;;13.90;1.00;;;;;;6384603;27;20755;-54
2022/10/30 05:41:18;;;;;;;22.43;19.50;;;13.90;1.00;;;;;;6381258;27;20235;-54
2022/10/30 05:44:21;;;;;;;19.73;17.63;;;13.90;1.00;;;;;;6384675;27;20271;-53
2022/10/30 05:47:53;;;;;;;19.47;17.43;;;13.90;1.00;;;;;;6371120;27;20239;-55
2022/10/30 05:50:57;;;;;;;20.07;17.10;;;13.90;1.00;;;;;;6379840;27;20718;-53
2022/10/30 05:53:59;;;;;;;19.00;17.00;;;13.90;1.00;;;;;;6384136;27;20240;-55
2022/10/30 05:57:04;;;;;;;18.57;16.50;;;14.00;1.00;;;;;;6377776;27;20230;-53
2022/10/30 06:00:08;;;;;;;18.37;16.47;;;13.90;1.00;;;;;;6384678;27;20393;-53
2022/10/30 06:03:12;;;;;;;24.67;18.73;;;13.90;1.00;;;;;;6381891;27;20238;-54
2022/10/30 06:06:16;;;;;;;20.67;17.10;;;13.90;1.00;;;;;;6376025;27;20236;-59
2022/10/30 06:09:19;;;;;;;23.53;18.40;;;14.00;1.00;;;;;;6383084;27;20230;-54
2022/10/30 06:12:23;;;;;;;20.50;18.33;;;14.00;1.00;;;;;;6384338;27;20235;-53
2022/10/30 06:15:27;;;;;;;20.47;16.50;;;14.00;1.00;;;;;;6377425;27;20227;-53
2022/10/30 06:18:29;;;;;;;17.73;15.73;;;14.00;1.00;;;;;;6387191;27;20226;-54
2022/10/30 06:21:32;;;;;;;20.90;16.10;;;14.00;1.00;;;;;;6387740;27;20819;-55
2022/10/30 06:24:35;;;;;;;22.60;17.63;;;14.10;1.00;;;;;;6386677;27;20372;-54
2022/10/30 06:27:39;;;;;;;18.90;15.97;;;14.00;1.00;;;;;;6380358;27;20230;-54
2022/10/30 06:30:42;;;;;;;24.60;18.80;;;14.10;1.00;;;;;;6387274;27;20779;-54
2022/10/30 06:33:45;;;;;;;19.10;17.33;;;14.10;1.00;;;;;;6387559;27;20261;-55
2022/10/30 06:36:48;;;;;;;18.87;16.90;;;14.10;1.00;;;;;;6387322;27;20261;-54
2022/10/30 06:39:51;;;;;;;17.93;16.03;;;14.20;1.00;;;;;;6387407;27;20605;-54
2022/10/30 06:42:55;;;;;;;19.93;16.80;;;14.10;1.00;;;;;;6387380;27;20248;-53
2022/10/30 06:45:59;;;;;;;16.90;15.20;;;14.10;1.00;;;;;;6387395;27;20626;-54
2022/10/30 06:49:02;;;;;;;15.53;14.03;;;14.20;1.00;;;;;;6379901;27;20229;-54
2022/10/30 06:52:05;;;;;;;15.50;13.90;;;14.20;1.00;;;;;;6387714;27;20274;-53
2022/10/30 06:55:09;;;;;;;19.57;15.50;;;14.20;1.00;;;;;;6386521;27;20245;-53
2022/10/30 06:58:13;;;;;;;17.13;15.43;;;14.30;1.00;;;;;;6384656;27;20237;-54
2022/10/30 07:01:16;;;;;;;17.87;15.97;;;14.30;1.00;;;;;;6387412;27;20239;-54
2022/10/30 07:04:19;;;;;;;23.87;18.23;;;14.30;1.00;;;;;;6386623;27;20230;-53
2022/10/30 07:07:22;;;;;;;20.90;16.20;;;14.30;1.00;;;;;;6385319;27;20715;-54
2022/10/30 07:10:26;;;;;;;20.23;14.97;;;14.40;1.00;;;;;;6386351;27;20783;-54
2022/10/30 07:13:30;;;;;;;22.00;15.73;;;14.40;1.00;;;;;;6387104;27;20490;-54
2022/10/30 07:16:33;;;;;;;17.53;14.60;;;14.40;1.00;;;;;;6382997;27;20226;-54
2022/10/30 07:19:47;;;;;;;18.27;14.47;;;14.40;1.00;;;;;;6386471;27;20595;-55
2022/10/30 07:22:50;;;;;;;17.80;13.37;;;14.50;1.00;;;;;;6380488;27;20249;-54
2022/10/30 07:25:53;;;;;;;16.40;13.30;;;14.50;1.00;;;;;;6381187;27;20372;-53
2022/10/30 07:29:01;;;;;;;23.60;15.47;;;14.60;1.00;;;;;;6382212;27;20238;-54
2022/10/30 07:32:05;;;;;;;16.23;14.47;;;14.60;1.00;;;;;;6380111;27;20601;-56
2022/10/30 07:35:09;;;;;;;16.13;14.00;;;14.70;1.00;;;;;;6381575;27;20226;-53
2022/10/30 07:38:13;;;;;;;13.87;12.47;;;14.70;1.00;;;;;;6385766;27;20231;-54
2022/10/30 07:41:17;;;;;;;17.80;14.40;;;14.80;1.00;;;;;;6385345;27;20609;-53
2022/10/30 07:44:21;;;;;;;17.30;14.73;;;14.90;1.00;;;;;;6381574;27;20235;-58
2022/10/30 07:47:24;;;;;;;23.67;16.03;;;15.00;1.00;;;;;;6357429;27;20223;-54
2022/10/30 07:50:27;;;;;;;18.47;15.47;;;15.00;1.00;;;;;;6386050;27;20233;-55
2022/10/30 07:53:30;;;;;;;16.57;15.00;;;15.10;1.00;;;;;;6384857;27;20264;-54
2022/10/30 07:56:33;;;;;;;22.03;15.33;;;15.20;1.00;;;;;;6379122;27;20856;-54
2022/10/30 07:59:38;;;;;;;20.73;16.60;;;15.20;1.00;;;;;;6384863;27;20235;-54
2022/10/30 08:02:44;;;;;;;15.47;13.93;;;15.20;1.00;;;;;;6380061;27;20354;-54
2022/10/30 08:05:47;;;;;;;20.13;16.30;;;15.30;1.00;;;;;;6386275;27;20739;-54
2022/10/30 08:08:50;;;;;;;19.93;14.50;;;15.30;1.00;;;;;;6384716;27;20234;-55
2022/10/30 08:11:53;;;;;;;18.93;14.53;;;15.40;1.00;;;;;;6378944;27;20235;-54
2022/10/30 08:14:57;;;;;;;24.77;16.03;;;15.50;1.00;;;;;;6381340;27;20230;-54
2022/10/30 08:18:00;;;;;;;20.60;14.47;;;15.70;1.00;;;;;;6385629;27;20237;-54
2022/10/30 08:21:03;;;;;;;19.13;14.13;;;15.80;1.00;;;;;;6385605;27;20737;-55
2022/10/30 08:24:07;;;;;;;20.47;13.70;;;15.80;1.00;;;;;;6379121;27;20241;-55
2022/10/30 08:27:10;;;;;;;15.93;13.77;;;15.90;1.00;;;;;;6384934;27;20230;-53
2022/10/30 08:30:14;;;;;;;18.70;13.83;;;16.00;1.00;;;;;;6385058;27;20222;-55
2022/10/30 08:33:17;;;;;;;18.60;13.80;;;16.00;1.00;;;;;;6375779;27;20230;-55
2022/10/30 08:36:20;;;;;;;17.53;12.77;;;15.90;1.00;;;;;;6388862;27;20518;-54
2022/10/30 08:39:23;;;;;;;16.77;13.13;;;15.90;1.00;;;;;;6387143;27;20847;-54
2022/10/30 08:42:27;;;;;;;19.13;13.00;;;15.90;1.00;;;;;;6379265;27;20288;-54
2022/10/30 08:45:31;;;;;;;12.70;11.33;;;15.90;1.00;;;;;;6384362;27;20245;-55
2022/10/30 08:48:35;;;;;;;19.30;13.13;;;15.90;1.00;;;;;;6384055;27;20231;-54
2022/10/30 08:51:37;;;;;;;15.03;12.43;;;16.00;1.00;;;;;;6385648;27;20230;-54
2022/10/30 08:54:40;;;;;;;15.40;12.63;;;16.10;1.00;;;;;;6385738;27;20885;-54
2022/10/30 08:57:44;;;;;;;22.77;17.83;;;16.20;1.00;;;;;;6375359;27;20231;-55
2022/10/30 09:00:49;;;;;;;14.27;12.27;;;16.40;1.00;;;;;;6383994;27;20229;-54
2022/10/30 09:03:52;;;;;;;17.13;11.77;;;16.60;1.00;;;;;;6385375;27;20242;-55
2022/10/30 09:06:55;;;;;;;14.90;12.20;;;16.80;1.00;;;;;;6382597;27;20772;-54
2022/10/30 09:09:58;;;;;;;12.20;10.90;;;17.00;1.00;;;;;;6384403;27;20230;-55
2022/10/30 09:13:02;;;;;;;15.33;11.10;;;17.20;1.00;;;;;;6379820;27;20234;-54
2022/10/30 09:16:07;;;;;;;15.70;11.27;;;17.40;1.00;;;;;;6383868;27;20604;-54
2022/10/30 09:19:10;;;;;;;12.30;10.97;;;17.50;1.00;;;;;;6383233;27;20226;-54
2022/10/30 09:22:20;;;;;;;13.07;10.60;;;17.50;1.00;;;;;;6382655;27;20288;-55
2022/10/30 09:25:23;;;;;;;10.90;9.40;;;17.50;1.00;;;;;;6384165;27;20229;-55
2022/10/30 09:28:26;;;;;;;15.27;11.10;;;17.40;1.00;;;;;;6383063;27;20707;-54
2022/10/30 09:31:30;;;;;;;14.90;11.37;;;17.40;1.00;;;;;;6381108;27;20222;-54
2022/10/30 09:34:33;;;;;;;16.30;10.43;;;17.50;1.00;;;;;;6382915;27;20602;-55
2022/10/30 09:37:36;;;;;;;16.97;10.77;;;17.60;1.00;;;;;;6383216;27;20585;-59
2022/10/30 09:41:09;;;;;;;14.40;10.40;;;17.80;1.00;;;;;;6383001;27;20242;-54
2022/10/30 09:44:23;;;;;;;13.47;10.90;;;18.00;1.00;;;;;;6378282;27;20367;-55
2022/10/30 09:47:35;;;;;;;14.77;9.90;;;18.20;1.00;;;;;;6382447;27;20227;-54
2022/10/30 09:50:45;;;;;;;13.40;9.40;;;18.40;1.00;;;;;;6386447;27;20230;-54
2022/10/30 09:53:59;;;;;;;17.00;9.87;;;18.60;1.00;;;;;;6381617;27;20241;-55
2022/10/30 09:57:15;;;;;;;9.40;8.60;;;18.70;1.00;;;;;;6371435;27;20238;-54
2022/10/30 10:00:21;;;;;;;9.73;8.70;;;18.90;1.00;;;;;;6387987;27;20457;-54
2022/10/30 10:03:38;;;;;;;15.40;9.17;;;19.10;1.00;;;;;;6388961;27;20257;-59
2022/10/30 10:06:53;;;;;;;11.27;8.93;;;19.20;1.00;;;;;;6383295;27;20245;-55
2022/10/30 10:10:01;;;;;;;9.07;8.13;;;19.40;1.00;;;;;;6386439;27;20400;-54
2022/10/30 10:13:05;;;;;;;11.53;8.87;;;19.50;1.00;;;;;;6388618;27;20322;-54
2022/10/30 10:16:16;;;;;;;15.60;8.43;;;19.70;1.00;;;;;;6388442;27;20375;-55
2022/10/30 10:19:22;;;;;;;11.73;7.90;;;19.80;1.00;;;;;;6379311;27;20219;-53
2022/10/30 10:22:31;;;;;;;15.63;8.83;;;20.00;1.00;;;;;;6384345;27;20238;-55
2022/10/30 10:25:35;;;;;;;13.70;8.43;;;20.10;1.00;;;;;;6388534;27;20238;-55
2022/10/30 10:28:52;;;;;;;12.57;8.40;;;20.20;1.00;;;;;;6386028;27;20699;-55
2022/10/30 10:32:08;;;;;;;15.10;8.43;;;20.40;1.00;;;;;;6383482;27;20631;-54
2022/10/30 10:35:37;;;;;;;11.87;7.67;;;20.50;1.00;;;;;;6387171;27;20250;-55
2022/10/30 10:38:59;;;;;;;13.07;8.47;;;20.70;1.00;;;;;;6387515;27;20231;-56
2022/10/30 10:42:19;;;;;;;11.10;8.43;;;20.70;1.00;;;;;;6383566;27;20231;-55
2022/10/30 10:45:30;;;;;;;10.90;7.80;;;20.80;1.00;;;;;;6387119;27;20580;-54
2022/10/30 10:49:03;;;;;;;8.40;7.13;;;20.90;1.00;;;;;;6387582;27;20258;-55
2022/10/30 10:52:11;;;;;;;11.47;7.27;;;21.00;1.00;;;;;;6383378;27;20227;-55
2022/10/30 10:55:26;;;;;;;11.63;8.13;;;21.00;1.00;;;;;;6384232;27;20702;-55
2022/10/30 10:58:35;;;;;;;9.33;7.83;;;21.10;1.00;;;;;;6387118;27;20479;-55
2022/10/30 11:01:40;;;;;;;10.27;7.27;;;21.20;1.00;;;;;;6383651;27;20253;-55
2022/10/30 11:04:49;;;;;;;13.40;7.60;;;21.40;1.00;;;;;;6381570;27;20230;-55
2022/10/30 11:07:57;;;;;;;12.13;7.50;;;21.30;1.00;;;;;;6384099;27;20483;-55
2022/10/30 11:11:02;;;;;;;10.03;7.70;;;21.40;1.00;;;;;;6387896;27;20741;-54
2022/10/30 11:14:13;;;;;;;14.83;6.63;;;21.40;1.00;;;;;;6386115;27;20234;-54
2022/10/30 11:17:21;;;;;;;15.50;7.77;;;21.50;1.00;;;;;;6383705;27;20236;-55
2022/10/30 11:20:33;;;;;;;12.27;7.10;;;21.50;1.00;;;;;;6386971;27;20242;-55
2022/10/30 11:23:39;;;;;;;8.97;7.90;;;21.60;1.00;;;;;;6385469;27;20668;-55
2022/10/30 11:26:42;;;;;;;9.70;7.03;;;21.60;1.00;;;;;;6387052;27;20389;-54
2022/10/30 11:29:51;;;;;;;13.83;7.43;;;21.70;1.00;;;;;;6386985;27;20239;-55
2022/10/30 11:32:55;;;;;;;10.90;7.27;;;21.70;1.00;;;;;;6381915;27;20322;-54
2022/10/30 11:36:09;;;;;;;7.93;6.60;;;21.70;1.00;;;;;;6386153;27;20241;-54
2022/10/30 11:39:26;;;;;;;11.67;6.70;;;21.80;1.00;;;;;;6384721;27;20639;-55
2022/10/30 11:42:29;;;;;;;18.00;7.40;;;21.90;1.00;;;;;;6383294;27;20810;-54
2022/10/30 11:45:36;;;;;;;10.03;6.70;;;21.90;1.00;;;;;;6383661;27;20704;-54
2022/10/30 11:48:43;;;;;;;16.20;7.13;;;22.00;1.00;;;;;;6384923;27;20265;-56
2022/10/30 11:51:46;;;;;;;9.27;6.30;;;22.00;1.00;;;;;;6374430;27;20947;-55
2022/10/30 11:54:55;;;;;;;7.83;6.00;;;22.10;1.00;;;;;;6387172;27;20239;-55
2022/10/30 11:57:58;;;;;;;10.23;6.83;;;22.10;1.00;;;;;;6384447;27;20234;-55
2022/10/30 12:01:07;;;;;;;12.50;6.93;;;22.20;1.00;;;;;;6384528;27;20322;-56
2022/10/30 12:04:16;;;;;;;14.13;7.60;;;22.30;1.00;;;;;;6384951;27;20231;-55
2022/10/30 12:07:25;;;;;;;15.07;7.60;;;22.20;1.00;;;;;;6382216;27;20234;-55
2022/10/30 12:10:30;;;;;;;14.00;8.23;;;22.10;1.00;;;;;;6383241;27;20234;-55
2022/10/30 12:13:38;;;;;;;11.03;7.07;;;22.10;1.00;;;;;;6386188;27;20223;-55
2022/10/30 12:16:49;;;;;;;15.97;7.73;;;22.20;1.00;;;;;;6382740;27;20227;-55
2022/10/30 12:19:56;;;;;;;12.97;6.77;;;22.30;1.00;;;;;;6380321;27;20238;-56
2022/10/30 12:23:08;;;;;;;11.80;6.57;;;22.30;1.00;;;;;;6385729;27;20238;-55
2022/10/30 12:26:15;;;;;;;13.57;7.00;;;22.30;1.00;;;;;;6383879;27;20261;-57
2022/10/30 12:29:23;;;;;;;13.37;6.53;;;22.30;1.00;;;;;;6385208;27;20388;-57
2022/10/30 12:32:52;;;;;;;9.07;6.10;;;22.30;1.00;;;;;;6375435;27;20602;-55
2022/10/30 12:35:57;;;;;;;11.67;6.70;;;22.30;1.00;;;;;;6383858;27;20611;-54
2022/10/30 12:39:04;;;;;;;9.70;6.13;;;22.30;1.00;;;;;;6381298;27;20240;-54
2022/10/30 12:42:14;;;;;;;11.47;6.47;;;22.30;1.00;;;;;;6385130;27;20226;-54
2022/10/30 12:45:23;;;;;;;12.03;6.77;;;22.30;1.00;;;;;;6381080;27;20602;-55
2022/10/30 12:48:35;;;;;;;8.77;6.70;;;22.30;1.00;;;;;;6385255;27;20241;-55
2022/10/30 12:51:46;;;;;;;12.20;6.77;;;22.40;1.00;;;;;;6384278;27;20725;-55
2022/10/30 12:54:54;;;;;;;13.07;6.93;;;22.30;1.00;;;;;;6377235;27;20245;-54
2022/10/30 12:58:08;;;;;;;13.47;7.53;;;22.20;1.00;;;;;;6383610;27;20242;-55
2022/10/30 13:01:23;;;;;;;12.93;7.20;;;22.20;1.00;;;;;;6384585;27;20696;-55
2022/10/30 13:04:33;;;;;;;10.27;7.00;;;22.10;1.00;;;;;;6379796;27;20238;-55
2022/10/30 13:07:41;;;;;;;19.57;7.03;;;22.10;1.00;;;;;;6384194;27;20238;-55
2022/10/30 13:10:48;;;;;;;14.00;7.20;;;22.10;1.00;;;;;;6369331;27;20615;-55
2022/10/30 13:13:55;;;;;;;14.87;7.07;;;22.00;1.00;;;;;;6384300;27;20238;-55
2022/10/30 13:17:11;;;;;;;9.70;6.53;;;22.00;1.00;;;;;;6383259;27;20234;-55
2022/10/30 13:20:15;;;;;;;16.10;7.20;;;22.00;1.00;;;;;;6380569;27;20457;-55
2022/10/30 13:23:28;;;;;;;10.50;5.83;;;22.00;1.00;;;;;;6383576;27;20288;-54
2022/10/30 13:26:43;;;;;;;7.20;6.10;;;22.00;1.00;;;;;;6383998;27;20583;-54
2022/10/30 13:29:54;;;;;;;14.97;6.87;;;22.00;1.00;;;;;;6376269;27;20231;-55
2022/10/30 13:33:06;;;;;;;9.43;6.10;;;22.00;1.00;;;;;;6383085;27;20280;-55
2022/10/30 13:36:16;;;;;;;11.67;5.87;;;22.10;1.00;;;;;;6383465;27;20233;-55
2022/10/30 13:39:27;;;;;;;14.53;7.63;;;22.00;1.00;;;;;;6378578;27;20234;-55
2022/10/30 13:42:41;;;;;;;11.53;6.60;;;22.00;1.00;;;;;;6383717;27;20246;-55
2022/10/30 13:46:10;;;;;;;12.03;6.33;;;21.90;1.00;;;;;;6381191;27;20234;-54
2022/10/30 13:49:32;;;;;;;10.93;5.93;;;21.90;1.00;;;;;;6369492;27;20317;-55
2022/10/30 13:52:40;;;;;;;14.90;6.50;;;21.80;1.00;;;;;;6383351;27;20239;-55
2022/10/30 13:55:44;;;;;;;12.57;7.10;;;21.80;1.00;;;;;;6375363;27;20238;-55
2022/10/30 13:58:58;;;;;;;8.70;7.10;;;21.80;1.00;;;;;;6382984;27;20465;-55
2022/10/30 14:02:20;;;;;;;14.27;7.27;;;21.80;1.00;;;;;;6383475;27;20364;-55
2022/10/30 14:05:31;;;;;;;11.47;7.00;;;21.70;1.00;;;;;;6350313;27;20223;-57
2022/10/30 14:08:39;;;;;;;8.33;6.53;;;21.70;1.00;;;;;;6382834;27;20761;-56
2022/10/30 14:11:42;;;;;;;9.57;6.30;;;21.60;1.00;;;;;;6383753;27;20353;-54
2022/10/30 14:14:47;;;;;;;20.60;7.30;;;21.60;1.00;;;;;;6378950;27;20718;-55
2022/10/30 14:18:31;;;;;;;11.53;6.23;;;21.50;1.00;;;;;;6383521;27;20706;-55
2022/10/30 14:21:51;;;;;;;8.67;6.40;;;21.30;1.00;;;;;;6324561;27;20245;-55
2022/10/30 14:24:54;;;;;;;11.53;6.97;;;21.30;1.00;;;;;;6378003;27;20231;-55
2022/10/30 14:27:59;;;;;;;19.67;7.00;;;21.20;1.00;;;;;;6384314;27;20829;-55
2022/10/30 14:31:03;;;;;;;10.63;6.97;;;21.10;1.00;;;;;;6383124;27;20441;-55
2022/10/30 14:34:42;;;;;;;12.70;6.83;;;21.00;1.00;;;;;;6379931;27;20234;-55
2022/10/30 14:37:56;;;;;;;7.43;5.73;;;20.90;1.00;;;;;;6378782;27;20227;-55
2022/10/30 14:41:34;;;;;;;10.30;7.37;;;20.80;1.00;;;;;;6384525;27;20231;-55
2022/10/30 14:44:49;;;;;;;10.50;6.73;;;20.60;1.00;;;;;;6387982;27;20227;-55
2022/10/30 14:47:59;;;;;;;14.50;6.77;;;20.50;1.00;;;;;;6386064;27;20231;-55
2022/10/30 14:51:16;;;;;;;9.20;6.60;;;20.40;1.00;;;;;;6387238;27;20249;-55
2022/10/30 14:54:24;;;;;;;8.73;5.50;;;20.30;1.00;;;;;;6387847;27;20253;-55
2022/10/30 14:57:46;;;;;;;7.73;6.20;;;20.20;1.00;;;;;;6382761;27;20231;-55
2022/10/30 15:00:51;;;;;;;11.13;6.73;;;20.20;1.00;;;;;;6385501;27;20545;-55
2022/10/30 15:04:07;;;;;;;10.97;7.43;;;20.10;1.00;;;;;;6388285;27;20230;-56
2022/10/30 15:07:22;;;;;;;8.53;6.67;;;20.10;1.00;;;;;;6384758;27;20226;-54
2022/10/30 15:10:31;;;;;;;11.03;7.10;;;19.90;1.00;;;;;;6387930;27;20806;-55
2022/10/30 15:13:34;;;;;;;12.07;7.20;;;19.80;1.00;;;;;;6383148;27;20238;-54
2022/10/30 15:16:40;;;;;;;11.20;6.53;;;19.70;1.00;;;;;;6387291;27;20484;-57
2022/10/30 15:19:43;;;;;;;11.93;7.23;;;19.60;1.00;;;;;;6377581;27;20317;-55
2022/10/30 15:22:52;;;;;;;16.03;7.50;;;19.40;1.00;;;;;;6382831;27;20619;-56
2022/10/30 15:25:58;;;;;;;8.87;6.90;;;19.30;1.00;;;;;;6386951;27;20227;-55
2022/10/30 15:29:06;;;;;;;10.03;6.43;;;19.20;1.00;;;;;;6376055;27;20267;-55
2022/10/30 15:32:16;;;;;;;7.37;6.67;;;19.10;1.00;;;;;;6385011;27;20231;-54
2022/10/30 15:35:21;;;;;;;7.10;6.33;;;18.90;1.00;;;;;;6386074;27;20238;-55
2022/10/30 15:38:25;;;;;;;6.60;5.97;;;18.80;1.00;;;;;;6383130;27;20585;-55
2022/10/30 15:41:34;;;;;;;7.90;6.20;;;18.60;1.00;;;;;;6387013;27;20609;-55
2022/10/30 15:44:41;;;;;;;9.27;6.77;;;18.50;1.00;;;;;;6385848;27;20668;-55
2022/10/30 15:47:46;;;;;;;10.77;7.40;;;18.40;1.00;;;;;;6384235;27;20495;-54
2022/10/30 15:50:55;;;;;;;10.07;7.63;;;18.20;1.00;;;;;;6385948;27;20245;-55
2022/10/30 15:54:02;;;;;;;8.77;7.53;;;18.10;1.00;;;;;;6386835;27;20235;-54
2022/10/30 15:57:06;;;;;;;10.40;7.63;;;18.00;1.00;;;;;;6376897;27;20246;-55
2022/10/30 16:00:31;;;;;;;8.40;7.50;;;17.90;1.00;;;;;;6385693;27;20235;-56
2022/10/30 16:03:34;;;;;;;8.63;7.57;;;17.80;1.00;;;;;;6386048;27;20242;-55
2022/10/30 16:06:37;;;;;;;8.17;7.13;;;17.70;1.00;;;;;;6379233;27;20226;-55
2022/10/30 16:09:52;;;;;;;9.60;7.97;;;17.60;1.00;;;;;;6384908;27;20735;-55